sensor_id;sensor_type;location;lat;lon;timestamp;temperature;humidity
33492;DHT22;20010;51.488;7.232;2022-09-20T00:01:09;9.70;99.90
33492;DHT22;20010;51.488;7.232;2022-09-20T00:03:38;9.60;99.90
33492;DHT22;20010;51.488;7.232;2022-09-20T00:06:08;9.50;99.90
33492;DHT22;20010;51.488;7.232;2022-09-20T00:08:36;9.50;99.90
33492;DHT22;20010;51.488;7.232;2022-09-20T00:11:14;9.50;99.90
33492;DHT22;20010;51.488;7.232;2022-09-20T00:13:44;9.50;99.90
33492;DHT22;20010;51.488;7.232;2022-09-20T00:16:18;9.50;99.90
33492;DHT22;20010;51.488;7.232;2022-09-20T00:18:49;9.50;99.90
33492;DHT22;20010;51.488;7.232;2022-09-20T00:21:19;9.50;99.90
33492;DHT22;20010;51.488;7.232;2022-09-20T00:23:46;9.50;99.90
33492;DHT22;20010;51.488;7.232;2022-09-20T00:26:13;9.50;99.90
33492;DHT22;20010;51.488;7.232;2022-09-20T00:28:40;9.50;99.90
33492;DHT22;20010;51.488;7.232;2022-09-20T00:31:07;9.50;99.90
33492;DHT22;20010;51.488;7.232;2022-09-20T00:33:34;9.50;99.90
33492;DHT22;20010;51.488;7.232;2022-09-20T00:36:20;9.40;99.90
33492;DHT22;20010;51.488;7.232;2022-09-20T00:38:47;9.50;99.90
33492;DHT22;20010;51.488;7.232;2022-09-20T00:41:14;9.50;99.90
33492;DHT22;20010;51.488;7.232;2022-09-20T00:43:45;9.40;99.90
33492;DHT22;20010;51.488;7.232;2022-09-20T00:48:45;9.40;99.90
33492;DHT22;20010;51.488;7.232;2022-09-20T00:51:16;9.50;99.90
33492;DHT22;20010;51.488;7.232;2022-09-20T00:53:47;9.40;99.90
33492;DHT22;20010;51.488;7.232;2022-09-20T00:56:18;9.40;99.90
33492;DHT22;20010;51.488;7.232;2022-09-20T00:59:05;9.50;99.90
33492;DHT22;20010;51.488;7.232;2022-09-20T01:01:35;9.50;99.90
33492;DHT22;20010;51.488;7.232;2022-09-20T01:04:02;9.50;99.90
33492;DHT22;20010;51.488;7.232;2022-09-20T01:06:31;9.40;99.90
33492;DHT22;20010;51.488;7.232;2022-09-20T01:09:02;9.40;99.90
33492;DHT22;20010;51.488;7.232;2022-09-20T01:11:30;9.30;99.90
33492;DHT22;20010;51.488;7.232;2022-09-20T01:13:57;9.40;99.90
33492;DHT22;20010;51.488;7.232;2022-09-20T01:16:25;9.30;99.90
33492;DHT22;20010;51.488;7.232;2022-09-20T01:18:59;9.30;99.90
33492;DHT22;20010;51.488;7.232;2022-09-20T01:21:27;9.30;99.90
33492;DHT22;20010;51.488;7.232;2022-09-20T01:24:04;9.30;99.90
33492;DHT22;20010;51.488;7.232;2022-09-20T01:31:59;9.30;99.90
33492;DHT22;20010;51.488;7.232;2022-09-20T01:34:58;9.30;99.90
33492;DHT22;20010;51.488;7.232;2022-09-20T01:37:46;9.30;99.90
33492;DHT22;20010;51.488;7.232;2022-09-20T01:40:37;9.30;99.90
33492;DHT22;20010;51.488;7.232;2022-09-20T01:45:51;9.30;99.90
33492;DHT22;20010;51.488;7.232;2022-09-20T01:48:38;9.30;99.90
33492;DHT22;20010;51.488;7.232;2022-09-20T01:51:31;9.30;99.90
33492;DHT22;20010;51.488;7.232;2022-09-20T01:57:12;9.30;99.90
33492;DHT22;20010;51.488;7.232;2022-09-20T02:10:50;9.20;99.90
33492;DHT22;20010;51.488;7.232;2022-09-20T02:13:31;9.20;99.90
33492;DHT22;20010;51.488;7.232;2022-09-20T02:24:52;9.10;99.90
33492;DHT22;20010;51.488;7.232;2022-09-20T02:30:28;9.10;99.90
33492;DHT22;20010;51.488;7.232;2022-09-20T02:38:32;9.10;99.90
33492;DHT22;20010;51.488;7.232;2022-09-20T02:41:08;9.10;99.90
33492;DHT22;20010;51.488;7.232;2022-09-20T02:43:58;9.10;99.90
33492;DHT22;20010;51.488;7.232;2022-09-20T02:52:26;9.00;99.90
33492;DHT22;20010;51.488;7.232;2022-09-20T02:54:57;9.00;99.90
33492;DHT22;20010;51.488;7.232;2022-09-20T02:57:56;9.00;99.90
33492;DHT22;20010;51.488;7.232;2022-09-20T03:00:36;9.00;99.90
33492;DHT22;20010;51.488;7.232;2022-09-20T03:06:06;9.00;99.90
33492;DHT22;20010;51.488;7.232;2022-09-20T03:09:12;9.00;99.90
33492;DHT22;20010;51.488;7.232;2022-09-20T03:17:30;9.00;99.90
33492;DHT22;20010;51.488;7.232;2022-09-20T03:20:27;8.90;99.90
33492;DHT22;20010;51.488;7.232;2022-09-20T03:23:20;8.90;99.90
33492;DHT22;20010;51.488;7.232;2022-09-20T03:34:13;8.90;99.90
33492;DHT22;20010;51.488;7.232;2022-09-20T03:42:41;8.90;99.90
33492;DHT22;20010;51.488;7.232;2022-09-20T03:59:07;8.80;99.90
33492;DHT22;20010;51.488;7.232;2022-09-20T04:07:22;8.80;99.90
33492;DHT22;20010;51.488;7.232;2022-09-20T04:18:34;8.60;99.90
33492;DHT22;20010;51.488;7.232;2022-09-20T04:21:27;8.70;99.90
33492;DHT22;20010;51.488;7.232;2022-09-20T04:26:31;8.70;99.90
33492;DHT22;20010;51.488;7.232;2022-09-20T04:33:17;8.80;99.90
33492;DHT22;20010;51.488;7.232;2022-09-20T04:38:25;8.90;99.90
33492;DHT22;20010;51.488;7.232;2022-09-20T04:58:36;9.20;99.90
33492;DHT22;20010;51.488;7.232;2022-09-20T05:15:38;9.40;99.90
33492;DHT22;20010;51.488;7.232;2022-09-20T05:21:04;9.40;99.90
33492;DHT22;20010;51.488;7.232;2022-09-20T05:32:00;9.40;99.90
33492;DHT22;20010;51.488;7.232;2022-09-20T05:37:49;9.40;99.90
33492;DHT22;20010;51.488;7.232;2022-09-20T05:51:46;9.60;99.90
33492;DHT22;20010;51.488;7.232;2022-09-20T05:54:38;9.60;99.90
33492;DHT22;20010;51.488;7.232;2022-09-20T05:57:18;9.60;99.90
33492;DHT22;20010;51.488;7.232;2022-09-20T06:00:08;9.60;99.90
33492;DHT22;20010;51.488;7.232;2022-09-20T06:02:56;9.70;99.90
33492;DHT22;20010;51.488;7.232;2022-09-20T06:16:30;9.80;99.90
33492;DHT22;20010;51.488;7.232;2022-09-20T06:21:54;9.90;99.90
33492;DHT22;20010;51.488;7.232;2022-09-20T06:24:34;9.90;99.90
33492;DHT22;20010;51.488;7.232;2022-09-20T06:27:07;9.90;99.90
33492;DHT22;20010;51.488;7.232;2022-09-20T06:29:40;9.90;99.90
33492;DHT22;20010;51.488;7.232;2022-09-20T06:32:09;9.90;99.90
33492;DHT22;20010;51.488;7.232;2022-09-20T06:34:36;10.00;99.90
33492;DHT22;20010;51.488;7.232;2022-09-20T06:37:40;10.00;99.90
33492;DHT22;20010;51.488;7.232;2022-09-20T06:40:40;10.10;99.90
33492;DHT22;20010;51.488;7.232;2022-09-20T06:43:47;10.10;99.90
33492;DHT22;20010;51.488;7.232;2022-09-20T06:46:14;10.20;99.90
33492;DHT22;20010;51.488;7.232;2022-09-20T06:48:41;10.20;99.90
33492;DHT22;20010;51.488;7.232;2022-09-20T06:51:08;10.20;99.90
33492;DHT22;20010;51.488;7.232;2022-09-20T06:53:38;10.30;99.90
33492;DHT22;20010;51.488;7.232;2022-09-20T06:56:17;10.30;99.90
33492;DHT22;20010;51.488;7.232;2022-09-20T06:58:45;10.30;99.90
33492;DHT22;20010;51.488;7.232;2022-09-20T07:01:12;10.40;99.90
33492;DHT22;20010;51.488;7.232;2022-09-20T07:03:40;10.40;99.90
33492;DHT22;20010;51.488;7.232;2022-09-20T07:06:08;10.40;99.90
33492;DHT22;20010;51.488;7.232;2022-09-20T07:08:34;10.40;99.90
33492;DHT22;20010;51.488;7.232;2022-09-20T07:11:06;10.40;99.90
33492;DHT22;20010;51.488;7.232;2022-09-20T07:13:35;10.30;99.90
33492;DHT22;20010;51.488;7.232;2022-09-20T07:16:04;10.30;99.90
33492;DHT22;20010;51.488;7.232;2022-09-20T07:18:31;10.40;99.90
33492;DHT22;20010;51.488;7.232;2022-09-20T07:21:02;10.50;99.90
33492;DHT22;20010;51.488;7.232;2022-09-20T07:23:29;10.50;99.90
33492;DHT22;20010;51.488;7.232;2022-09-20T07:25:56;10.50;99.90
33492;DHT22;20010;51.488;7.232;2022-09-20T07:28:28;10.50;99.90
33492;DHT22;20010;51.488;7.232;2022-09-20T07:30:55;10.50;99.90
33492;DHT22;20010;51.488;7.232;2022-09-20T07:33:21;10.50;99.90
33492;DHT22;20010;51.488;7.232;2022-09-20T07:35:51;10.60;99.90
33492;DHT22;20010;51.488;7.232;2022-09-20T07:38:21;10.70;99.90
33492;DHT22;20010;51.488;7.232;2022-09-20T07:40:59;10.60;99.90
33492;DHT22;20010;51.488;7.232;2022-09-20T07:43:29;10.60;99.90
33492;DHT22;20010;51.488;7.232;2022-09-20T07:45:56;10.60;99.90
33492;DHT22;20010;51.488;7.232;2022-09-20T07:48:30;10.70;99.90
33492;DHT22;20010;51.488;7.232;2022-09-20T07:51:01;10.70;99.90
33492;DHT22;20010;51.488;7.232;2022-09-20T07:53:34;10.70;99.90
33492;DHT22;20010;51.488;7.232;2022-09-20T07:56:11;10.80;99.90
33492;DHT22;20010;51.488;7.232;2022-09-20T07:58:38;10.80;99.90
33492;DHT22;20010;51.488;7.232;2022-09-20T08:01:10;10.90;99.90
33492;DHT22;20010;51.488;7.232;2022-09-20T08:03:38;11.00;99.90
33492;DHT22;20010;51.488;7.232;2022-09-20T08:06:10;11.00;99.90
33492;DHT22;20010;51.488;7.232;2022-09-20T08:08:38;11.10;99.90
33492;DHT22;20010;51.488;7.232;2022-09-20T08:11:11;11.10;99.90
33492;DHT22;20010;51.488;7.232;2022-09-20T08:13:41;11.10;99.90
33492;DHT22;20010;51.488;7.232;2022-09-20T08:16:29;11.20;99.90
33492;DHT22;20010;51.488;7.232;2022-09-20T08:19:00;11.20;99.90
33492;DHT22;20010;51.488;7.232;2022-09-20T08:21:30;11.20;99.90
33492;DHT22;20010;51.488;7.232;2022-09-20T08:23:58;11.20;99.90
33492;DHT22;20010;51.488;7.232;2022-09-20T08:26:27;11.30;99.90
33492;DHT22;20010;51.488;7.232;2022-09-20T08:28:56;11.40;99.90
33492;DHT22;20010;51.488;7.232;2022-09-20T08:31:28;11.40;99.90
33492;DHT22;20010;51.488;7.232;2022-09-20T08:34:00;11.50;99.90
33492;DHT22;20010;51.488;7.232;2022-09-20T08:36:31;11.60;99.90
33492;DHT22;20010;51.488;7.232;2022-09-20T08:39:02;11.60;99.90
33492;DHT22;20010;51.488;7.232;2022-09-20T08:44:59;11.70;99.90
33492;DHT22;20010;51.488;7.232;2022-09-20T08:47:30;11.70;99.90
33492;DHT22;20010;51.488;7.232;2022-09-20T08:49:58;11.80;99.90
33492;DHT22;20010;51.488;7.232;2022-09-20T08:52:35;11.70;99.90
33492;DHT22;20010;51.488;7.232;2022-09-20T08:55:29;11.80;99.90
33492;DHT22;20010;51.488;7.232;2022-09-20T08:58:09;11.90;99.90
33492;DHT22;20010;51.488;7.232;2022-09-20T09:00:38;11.90;99.90
33492;DHT22;20010;51.488;7.232;2022-09-20T09:03:15;11.90;99.90
33492;DHT22;20010;51.488;7.232;2022-09-20T09:05:54;11.90;99.90
33492;DHT22;20010;51.488;7.232;2022-09-20T09:08:27;11.90;99.90
33492;DHT22;20010;51.488;7.232;2022-09-20T09:11:03;11.90;99.90
33492;DHT22;20010;51.488;7.232;2022-09-20T09:16:20;12.00;99.90
33492;DHT22;20010;51.488;7.232;2022-09-20T09:18:56;12.10;99.90
33492;DHT22;20010;51.488;7.232;2022-09-20T09:21:27;12.20;99.90
33492;DHT22;20010;51.488;7.232;2022-09-20T09:24:02;12.30;99.90
33492;DHT22;20010;51.488;7.232;2022-09-20T09:26:37;12.30;99.90
33492;DHT22;20010;51.488;7.232;2022-09-20T09:29:23;12.30;99.90
33492;DHT22;20010;51.488;7.232;2022-09-20T09:31:51;12.30;99.90
33492;DHT22;20010;51.488;7.232;2022-09-20T09:34:25;12.50;99.90
33492;DHT22;20010;51.488;7.232;2022-09-20T09:36:53;12.70;99.90
33492;DHT22;20010;51.488;7.232;2022-09-20T09:39:33;12.70;99.90
33492;DHT22;20010;51.488;7.232;2022-09-20T09:42:20;12.80;99.90
33492;DHT22;20010;51.488;7.232;2022-09-20T09:44:47;12.90;99.90
33492;DHT22;20010;51.488;7.232;2022-09-20T09:47:27;13.10;99.90
33492;DHT22;20010;51.488;7.232;2022-09-20T09:49:56;13.20;99.90
33492;DHT22;20010;51.488;7.232;2022-09-20T09:52:28;13.30;99.90
33492;DHT22;20010;51.488;7.232;2022-09-20T09:54:59;13.20;99.90
33492;DHT22;20010;51.488;7.232;2022-09-20T10:00:21;13.10;99.90
33492;DHT22;20010;51.488;7.232;2022-09-20T10:14:35;13.10;99.90
33492;DHT22;20010;51.488;7.232;2022-09-20T10:24:20;13.30;99.90
33492;DHT22;20010;51.488;7.232;2022-09-20T10:32:20;13.10;99.90
33492;DHT22;20010;51.488;7.232;2022-09-20T10:37:31;13.20;99.90
33492;DHT22;20010;51.488;7.232;2022-09-20T10:42:44;13.00;99.90
33492;DHT22;20010;51.488;7.232;2022-09-20T10:48:41;12.90;99.90
33492;DHT22;20010;51.488;7.232;2022-09-20T11:08:15;13.80;99.90
33492;DHT22;20010;51.488;7.232;2022-09-20T11:10:54;13.80;99.90
33492;DHT22;20010;51.488;7.232;2022-09-20T11:16:29;14.10;99.90
33492;DHT22;20010;51.488;7.232;2022-09-20T11:21:57;14.30;99.90
33492;DHT22;20010;51.488;7.232;2022-09-20T11:35:05;14.30;99.90
33492;DHT22;20010;51.488;7.232;2022-09-20T11:43:36;14.60;99.90
33492;DHT22;20010;51.488;7.232;2022-09-20T11:46:11;14.80;99.90
33492;DHT22;20010;51.488;7.232;2022-09-20T11:48:43;14.80;99.90
33492;DHT22;20010;51.488;7.232;2022-09-20T11:51:18;14.80;99.90
33492;DHT22;20010;51.488;7.232;2022-09-20T11:56:28;14.70;99.90
33492;DHT22;20010;51.488;7.232;2022-09-20T11:58:58;14.50;99.90
33492;DHT22;20010;51.488;7.232;2022-09-20T12:01:35;14.60;99.90
33492;DHT22;20010;51.488;7.232;2022-09-20T12:04:08;14.60;99.90
33492;DHT22;20010;51.488;7.232;2022-09-20T12:07:03;14.60;99.90
33492;DHT22;20010;51.488;7.232;2022-09-20T12:09:40;14.80;99.90
33492;DHT22;20010;51.488;7.232;2022-09-20T12:12:31;14.90;99.90
33492;DHT22;20010;51.488;7.232;2022-09-20T12:15:03;14.70;99.90
33492;DHT22;20010;51.488;7.232;2022-09-20T12:28:48;14.70;99.90
33492;DHT22;20010;51.488;7.232;2022-09-20T12:31:36;14.90;99.90
33492;DHT22;20010;51.488;7.232;2022-09-20T12:39:24;15.70;99.90
33492;DHT22;20010;51.488;7.232;2022-09-20T13:00:38;16.10;99.90
33492;DHT22;20010;51.488;7.232;2022-09-20T13:05:45;16.60;99.90
33492;DHT22;20010;51.488;7.232;2022-09-20T13:08:22;17.30;99.90
33492;DHT22;20010;51.488;7.232;2022-09-20T13:13:49;18.50;99.90
33492;DHT22;20010;51.488;7.232;2022-09-20T13:19:29;18.70;99.90
33492;DHT22;20010;51.488;7.232;2022-09-20T13:24:36;18.50;99.90
33492;DHT22;20010;51.488;7.232;2022-09-20T13:27:06;17.70;99.90
33492;DHT22;20010;51.488;7.232;2022-09-20T13:37:39;16.10;99.90
33492;DHT22;20010;51.488;7.232;2022-09-20T13:40:23;16.00;99.90
33492;DHT22;20010;51.488;7.232;2022-09-20T13:42:52;15.90;99.90
33492;DHT22;20010;51.488;7.232;2022-09-20T13:45:41;15.80;99.90
33492;DHT22;20010;51.488;7.232;2022-09-20T13:48:09;15.70;99.90
33492;DHT22;20010;51.488;7.232;2022-09-20T13:50:35;15.60;99.90
33492;DHT22;20010;51.488;7.232;2022-09-20T13:53:15;15.50;99.90
33492;DHT22;20010;51.488;7.232;2022-09-20T13:56:09;15.30;99.90
33492;DHT22;20010;51.488;7.232;2022-09-20T13:58:37;15.20;99.90
33492;DHT22;20010;51.488;7.232;2022-09-20T14:01:06;15.10;99.90
33492;DHT22;20010;51.488;7.232;2022-09-20T14:03:43;15.00;99.90
33492;DHT22;20010;51.488;7.232;2022-09-20T14:06:13;14.90;99.90
33492;DHT22;20010;51.488;7.232;2022-09-20T14:08:45;14.80;99.90
33492;DHT22;20010;51.488;7.232;2022-09-20T14:13:45;14.80;99.90
33492;DHT22;20010;51.488;7.232;2022-09-20T14:16:14;14.80;99.90
33492;DHT22;20010;51.488;7.232;2022-09-20T14:18:42;14.70;99.90
33492;DHT22;20010;51.488;7.232;2022-09-20T14:21:10;14.70;99.90
33492;DHT22;20010;51.488;7.232;2022-09-20T14:26:23;14.70;99.90
33492;DHT22;20010;51.488;7.232;2022-09-20T14:28:51;14.70;99.90
33492;DHT22;20010;51.488;7.232;2022-09-20T14:31:28;14.70;99.90
33492;DHT22;20010;51.488;7.232;2022-09-20T14:34:01;14.80;99.90
33492;DHT22;20010;51.488;7.232;2022-09-20T14:36:30;14.90;99.90
33492;DHT22;20010;51.488;7.232;2022-09-20T14:39:02;14.90;99.90
33492;DHT22;20010;51.488;7.232;2022-09-20T14:41:35;14.90;99.90
33492;DHT22;20010;51.488;7.232;2022-09-20T14:44:04;15.00;99.90
33492;DHT22;20010;51.488;7.232;2022-09-20T14:46:33;14.90;99.90
33492;DHT22;20010;51.488;7.232;2022-09-20T14:49:28;14.80;99.90
33492;DHT22;20010;51.488;7.232;2022-09-20T14:54:59;14.90;99.90
33492;DHT22;20010;51.488;7.232;2022-09-20T14:57:27;14.90;99.90
33492;DHT22;20010;51.488;7.232;2022-09-20T14:59:55;15.00;99.90
33492;DHT22;20010;51.488;7.232;2022-09-20T15:02:25;15.00;99.90
33492;DHT22;20010;51.488;7.232;2022-09-20T15:04:56;15.00;99.90
33492;DHT22;20010;51.488;7.232;2022-09-20T15:07:25;15.00;99.90
33492;DHT22;20010;51.488;7.232;2022-09-20T15:09:52;15.00;99.90
33492;DHT22;20010;51.488;7.232;2022-09-20T15:12:20;15.00;99.90
33492;DHT22;20010;51.488;7.232;2022-09-20T15:14:47;15.10;99.90
33492;DHT22;20010;51.488;7.232;2022-09-20T15:17:16;15.20;99.90
33492;DHT22;20010;51.488;7.232;2022-09-20T15:19:45;15.20;99.90
33492;DHT22;20010;51.488;7.232;2022-09-20T15:22:11;15.30;99.90
33492;DHT22;20010;51.488;7.232;2022-09-20T15:24:40;15.40;99.90
33492;DHT22;20010;51.488;7.232;2022-09-20T15:27:08;15.60;99.90
33492;DHT22;20010;51.488;7.232;2022-09-20T15:29:35;15.70;99.90
33492;DHT22;20010;51.488;7.232;2022-09-20T15:32:01;15.70;99.90
33492;DHT22;20010;51.488;7.232;2022-09-20T15:34:30;15.80;99.90
33492;DHT22;20010;51.488;7.232;2022-09-20T15:36:57;15.80;99.90
33492;DHT22;20010;51.488;7.232;2022-09-20T15:39:24;15.80;99.90
33492;DHT22;20010;51.488;7.232;2022-09-20T15:41:52;15.70;99.90
33492;DHT22;20010;51.488;7.232;2022-09-20T15:44:18;15.60;99.90
33492;DHT22;20010;51.488;7.232;2022-09-20T15:46:46;15.60;99.90
33492;DHT22;20010;51.488;7.232;2022-09-20T15:49:14;15.50;99.90
33492;DHT22;20010;51.488;7.232;2022-09-20T15:51:41;15.40;99.90
33492;DHT22;20010;51.488;7.232;2022-09-20T15:54:11;15.30;99.90
33492;DHT22;20010;51.488;7.232;2022-09-20T15:56:39;15.10;99.90
33492;DHT22;20010;51.488;7.232;2022-09-20T15:59:08;14.90;99.90
33492;DHT22;20010;51.488;7.232;2022-09-20T16:01:40;14.80;99.90
33492;DHT22;20010;51.488;7.232;2022-09-20T16:04:09;14.80;99.90
33492;DHT22;20010;51.488;7.232;2022-09-20T16:06:37;14.60;99.90
33492;DHT22;20010;51.488;7.232;2022-09-20T16:09:06;14.70;99.90
33492;DHT22;20010;51.488;7.232;2022-09-20T16:11:33;14.70;99.90
33492;DHT22;20010;51.488;7.232;2022-09-20T16:14:00;14.60;99.90
33492;DHT22;20010;51.488;7.232;2022-09-20T16:16:28;14.60;99.90
33492;DHT22;20010;51.488;7.232;2022-09-20T16:18:55;14.50;99.90
33492;DHT22;20010;51.488;7.232;2022-09-20T16:21:42;14.40;99.90
33492;DHT22;20010;51.488;7.232;2022-09-20T16:24:10;14.20;99.90
33492;DHT22;20010;51.488;7.232;2022-09-20T16:26:39;14.20;99.90
33492;DHT22;20010;51.488;7.232;2022-09-20T16:29:06;14.20;99.90
33492;DHT22;20010;51.488;7.232;2022-09-20T16:31:43;14.00;99.90
33492;DHT22;20010;51.488;7.232;2022-09-20T16:34:18;14.00;99.90
33492;DHT22;20010;51.488;7.232;2022-09-20T16:39:13;13.90;99.90
33492;DHT22;20010;51.488;7.232;2022-09-20T16:41:41;13.90;99.90
33492;DHT22;20010;51.488;7.232;2022-09-20T16:44:08;13.90;99.90
33492;DHT22;20010;51.488;7.232;2022-09-20T16:46:35;13.90;99.90
33492;DHT22;20010;51.488;7.232;2022-09-20T16:49:04;13.80;99.90
33492;DHT22;20010;51.488;7.232;2022-09-20T16:51:34;13.70;99.90
33492;DHT22;20010;51.488;7.232;2022-09-20T16:54:07;13.60;99.90
33492;DHT22;20010;51.488;7.232;2022-09-20T16:56:56;13.60;99.90
33492;DHT22;20010;51.488;7.232;2022-09-20T16:59:24;13.60;99.90
33492;DHT22;20010;51.488;7.232;2022-09-20T17:01:50;13.50;99.90
33492;DHT22;20010;51.488;7.232;2022-09-20T17:04:18;13.50;99.90
33492;DHT22;20010;51.488;7.232;2022-09-20T17:06:47;13.40;99.90
33492;DHT22;20010;51.488;7.232;2022-09-20T17:09:15;13.40;99.90
33492;DHT22;20010;51.488;7.232;2022-09-20T17:11:47;13.30;99.90
33492;DHT22;20010;51.488;7.232;2022-09-20T17:14:17;13.30;99.90
33492;DHT22;20010;51.488;7.232;2022-09-20T17:16:44;13.20;99.90
33492;DHT22;20010;51.488;7.232;2022-09-20T17:19:17;13.20;99.90
33492;DHT22;20010;51.488;7.232;2022-09-20T17:21:46;13.20;99.90
33492;DHT22;20010;51.488;7.232;2022-09-20T17:24:18;13.10;99.90
33492;DHT22;20010;51.488;7.232;2022-09-20T17:26:45;13.00;99.90
33492;DHT22;20010;51.488;7.232;2022-09-20T17:29:14;12.90;99.90
33492;DHT22;20010;51.488;7.232;2022-09-20T17:31:43;12.90;99.90
33492;DHT22;20010;51.488;7.232;2022-09-20T17:34:17;12.80;99.90
33492;DHT22;20010;51.488;7.232;2022-09-20T17:36:47;12.70;99.90
33492;DHT22;20010;51.488;7.232;2022-09-20T17:39:15;12.60;99.90
33492;DHT22;20010;51.488;7.232;2022-09-20T17:41:44;12.60;99.90
33492;DHT22;20010;51.488;7.232;2022-09-20T17:44:12;12.50;99.90
33492;DHT22;20010;51.488;7.232;2022-09-20T17:46:40;12.60;99.90
33492;DHT22;20010;51.488;7.232;2022-09-20T17:49:15;12.50;99.90
33492;DHT22;20010;51.488;7.232;2022-09-20T17:51:49;12.50;99.90
33492;DHT22;20010;51.488;7.232;2022-09-20T17:54:16;12.40;99.90
33492;DHT22;20010;51.488;7.232;2022-09-20T17:56:50;12.30;99.90
33492;DHT22;20010;51.488;7.232;2022-09-20T17:59:18;12.30;99.90
33492;DHT22;20010;51.488;7.232;2022-09-20T18:01:47;12.30;99.90
33492;DHT22;20010;51.488;7.232;2022-09-20T18:04:15;12.30;99.90
33492;DHT22;20010;51.488;7.232;2022-09-20T18:06:47;12.20;99.90
33492;DHT22;20010;51.488;7.232;2022-09-20T18:09:17;12.20;99.90
33492;DHT22;20010;51.488;7.232;2022-09-20T18:11:49;12.20;99.90
33492;DHT22;20010;51.488;7.232;2022-09-20T18:14:19;12.10;99.90
33492;DHT22;20010;51.488;7.232;2022-09-20T18:16:46;12.10;99.90
33492;DHT22;20010;51.488;7.232;2022-09-20T18:19:13;12.00;99.90
33492;DHT22;20010;51.488;7.232;2022-09-20T18:21:41;12.00;99.90
33492;DHT22;20010;51.488;7.232;2022-09-20T18:24:09;12.00;99.90
33492;DHT22;20010;51.488;7.232;2022-09-20T18:26:39;12.00;99.90
33492;DHT22;20010;51.488;7.232;2022-09-20T18:29:10;12.00;99.90
33492;DHT22;20010;51.488;7.232;2022-09-20T18:31:39;12.00;99.90
33492;DHT22;20010;51.488;7.232;2022-09-20T18:34:10;12.00;99.90
33492;DHT22;20010;51.488;7.232;2022-09-20T18:36:45;12.00;99.90
33492;DHT22;20010;51.488;7.232;2022-09-20T18:39:13;11.90;99.90
33492;DHT22;20010;51.488;7.232;2022-09-20T18:41:40;11.90;99.90
33492;DHT22;20010;51.488;7.232;2022-09-20T18:44:08;11.90;99.90
33492;DHT22;20010;51.488;7.232;2022-09-20T18:46:37;11.80;99.90
33492;DHT22;20010;51.488;7.232;2022-09-20T18:49:07;11.80;99.90
33492;DHT22;20010;51.488;7.232;2022-09-20T18:51:35;11.70;99.90
33492;DHT22;20010;51.488;7.232;2022-09-20T18:54:06;11.60;99.90
33492;DHT22;20010;51.488;7.232;2022-09-20T18:56:37;11.60;99.90
33492;DHT22;20010;51.488;7.232;2022-09-20T19:13:01;11.50;99.90
33492;DHT22;20010;51.488;7.232;2022-09-20T19:15:38;11.50;99.90
33492;DHT22;20010;51.488;7.232;2022-09-20T19:26:30;11.40;99.90
33492;DHT22;20010;51.488;7.232;2022-09-20T19:28:59;11.40;99.90
33492;DHT22;20010;51.488;7.232;2022-09-20T19:31:27;11.30;99.90
33492;DHT22;20010;51.488;7.232;2022-09-20T19:33:56;11.30;99.90
33492;DHT22;20010;51.488;7.232;2022-09-20T19:36:34;11.30;99.90
33492;DHT22;20010;51.488;7.232;2022-09-20T19:39:13;11.30;99.90
33492;DHT22;20010;51.488;7.232;2022-09-20T19:50:20;11.20;99.90
33492;DHT22;20010;51.488;7.232;2022-09-20T19:52:54;11.10;99.90
33492;DHT22;20010;51.488;7.232;2022-09-20T19:55:24;11.10;99.90
33492;DHT22;20010;51.488;7.232;2022-09-20T19:57:51;11.00;99.90
33492;DHT22;20010;51.488;7.232;2022-09-20T20:00:19;11.00;99.90
33492;DHT22;20010;51.488;7.232;2022-09-20T20:02:47;11.00;99.90
33492;DHT22;20010;51.488;7.232;2022-09-20T20:05:16;10.90;99.90
33492;DHT22;20010;51.488;7.232;2022-09-20T20:08:13;10.90;99.90
33492;DHT22;20010;51.488;7.232;2022-09-20T20:13:39;10.90;99.90
33492;DHT22;20010;51.488;7.232;2022-09-20T20:16:50;10.80;99.90
33492;DHT22;20010;51.488;7.232;2022-09-20T20:22:31;10.80;99.90
33492;DHT22;20010;51.488;7.232;2022-09-20T20:25:01;10.80;99.90
33492;DHT22;20010;51.488;7.232;2022-09-20T20:27:27;10.70;99.90
33492;DHT22;20010;51.488;7.232;2022-09-20T20:29:54;10.70;99.90
33492;DHT22;20010;51.488;7.232;2022-09-20T20:32:22;10.70;99.90
33492;DHT22;20010;51.488;7.232;2022-09-20T20:34:49;10.70;99.90
33492;DHT22;20010;51.488;7.232;2022-09-20T20:37:15;10.70;99.90
33492;DHT22;20010;51.488;7.232;2022-09-20T20:39:43;10.60;99.90
33492;DHT22;20010;51.488;7.232;2022-09-20T20:42:10;10.60;99.90
33492;DHT22;20010;51.488;7.232;2022-09-20T20:44:38;10.60;99.90
33492;DHT22;20010;51.488;7.232;2022-09-20T20:47:05;10.60;99.90
33492;DHT22;20010;51.488;7.232;2022-09-20T20:49:32;10.60;99.90
33492;DHT22;20010;51.488;7.232;2022-09-20T20:52:01;10.60;99.90
33492;DHT22;20010;51.488;7.232;2022-09-20T20:54:31;10.50;99.90
33492;DHT22;20010;51.488;7.232;2022-09-20T20:56:58;10.40;99.90
33492;DHT22;20010;51.488;7.232;2022-09-20T20:59:25;10.30;99.90
33492;DHT22;20010;51.488;7.232;2022-09-20T21:01:52;10.20;99.90
33492;DHT22;20010;51.488;7.232;2022-09-20T21:04:19;10.20;99.90
33492;DHT22;20010;51.488;7.232;2022-09-20T21:06:47;10.10;99.90
33492;DHT22;20010;51.488;7.232;2022-09-20T21:09:13;10.10;99.90
33492;DHT22;20010;51.488;7.232;2022-09-20T21:11:41;10.10;99.90
33492;DHT22;20010;51.488;7.232;2022-09-20T21:14:12;10.10;99.90
33492;DHT22;20010;51.488;7.232;2022-09-20T21:16:41;10.10;99.90
33492;DHT22;20010;51.488;7.232;2022-09-20T21:19:10;10.00;99.90
33492;DHT22;20010;51.488;7.232;2022-09-20T21:21:41;10.10;99.90
33492;DHT22;20010;51.488;7.232;2022-09-20T21:24:10;10.10;99.90
33492;DHT22;20010;51.488;7.232;2022-09-20T21:26:38;10.00;99.90
33492;DHT22;20010;51.488;7.232;2022-09-20T21:29:13;9.90;99.90
33492;DHT22;20010;51.488;7.232;2022-09-20T21:31:42;10.00;99.90
33492;DHT22;20010;51.488;7.232;2022-09-20T21:34:10;9.90;99.90
33492;DHT22;20010;51.488;7.232;2022-09-20T21:36:38;9.90;99.90
33492;DHT22;20010;51.488;7.232;2022-09-20T21:39:07;9.90;99.90
33492;DHT22;20010;51.488;7.232;2022-09-20T21:41:36;9.80;99.90
33492;DHT22;20010;51.488;7.232;2022-09-20T21:44:04;9.80;99.90
33492;DHT22;20010;51.488;7.232;2022-09-20T21:46:36;9.80;99.90
33492;DHT22;20010;51.488;7.232;2022-09-20T21:49:07;9.70;99.90
33492;DHT22;20010;51.488;7.232;2022-09-20T21:51:34;9.80;99.90
33492;DHT22;20010;51.488;7.232;2022-09-20T21:54:02;9.80;99.90
33492;DHT22;20010;51.488;7.232;2022-09-20T21:56:32;9.80;99.90
33492;DHT22;20010;51.488;7.232;2022-09-20T21:59:00;9.70;99.90
33492;DHT22;20010;51.488;7.232;2022-09-20T22:01:35;9.70;99.90
33492;DHT22;20010;51.488;7.232;2022-09-20T22:04:04;9.70;99.90
33492;DHT22;20010;51.488;7.232;2022-09-20T22:06:37;9.60;99.90
33492;DHT22;20010;51.488;7.232;2022-09-20T22:09:07;9.60;99.90
33492;DHT22;20010;51.488;7.232;2022-09-20T22:11:36;9.60;99.90
33492;DHT22;20010;51.488;7.232;2022-09-20T22:14:08;9.60;99.90